Arnolds Park, Iowa
Current Conditions -  °F | °C
As of 4:53 PM on Wednesday 22 Oct 2014 (Local Time) from KSPW Reporting Station
Clear Clear  
Wind Chill: 69°   Ceiling: Unl
Heat Index: 69°   Visibility: 10mi
Dew Point: 48°   Wind: 22mph
Humidity: 47%   Direction: 160°SSE
Pressure: 29.98"   Gusts: 31mph
Location:  43.37°N, 95.12°W
Report Text: KSPW 222153Z AUTO 16019G27KT 10SM CLR 21/09 A2998 RMK AO2 PK WND 15028/2134 SLP153 T02060089 TSNO
Loading
Personal Weather Stations






























Interactive Weather Map New forecast layout! Learn more

10-Day Weather Forecast

Advertisements
Track Severe Weather on mobile